createdAt,value
2022-08-19T00:00:12.135Z,16.80
2022-08-19T00:01:14.555Z,12.25
2022-08-19T00:02:28.531Z,9.35
2022-08-19T00:03:30.772Z,8.40
2022-08-19T00:04:37.252Z,7.18
2022-08-19T00:05:41.436Z,9.65
2022-08-19T00:06:45.884Z,9.10
2022-08-19T00:07:49.747Z,8.75
2022-08-19T00:08:52.343Z,10.55
2022-08-19T00:09:54.747Z,7.13
2022-08-19T00:10:59.119Z,7.57
2022-08-19T00:12:02.178Z,11.25
2022-08-19T00:13:05.218Z,8.43
2022-08-19T00:14:10.725Z,10.75
2022-08-19T00:15:16.428Z,9.63
2022-08-19T00:16:26.147Z,8.18
2022-08-19T00:17:28.899Z,8.23
2022-08-19T00:18:31.953Z,9.68
2022-08-19T00:19:35.333Z,8.63
2022-08-19T00:20:41.352Z,15.95
2022-08-19T00:21:44.244Z,11.90
2022-08-19T00:22:48.821Z,8.82
2022-08-19T00:23:51.402Z,9.55
2022-08-19T00:24:53.575Z,11.23
2022-08-19T00:25:57.335Z,10.43
2022-08-19T00:27:25.657Z,11.23
2022-08-19T00:28:22.138Z,10.77
2022-08-19T00:29:26.061Z,14.13
2022-08-19T00:30:28.964Z,13.07
2022-08-19T00:31:32.125Z,16.48
2022-08-19T00:32:35.293Z,8.77
2022-08-19T00:33:37.806Z,10.63
2022-08-19T00:34:40.192Z,8.93
2022-08-19T00:35:42.375Z,6.85
2022-08-19T00:36:44.738Z,9.10
2022-08-19T00:37:49.210Z,11.55
2022-08-19T00:38:53.847Z,10.88
2022-08-19T00:39:56.941Z,9.18
2022-08-19T00:40:59.698Z,14.00
2022-08-19T00:42:02.859Z,10.13
2022-08-19T00:43:10.893Z,9.65
2022-08-19T00:44:28.379Z,9.43
2022-08-19T00:45:36.567Z,9.10
2022-08-19T00:46:42.058Z,8.18
2022-08-19T00:47:45.942Z,8.18
2022-08-19T00:48:48.122Z,14.20
2022-08-19T00:49:54.988Z,10.45
2022-08-19T00:50:57.702Z,14.13
2022-08-19T00:52:13.524Z,9.88
2022-08-19T00:53:21.187Z,10.60
2022-08-19T00:54:29.125Z,18.50
2022-08-19T00:55:34.582Z,12.50
2022-08-19T00:56:37.790Z,10.60
2022-08-19T00:57:45.607Z,10.23
2022-08-19T00:58:47.806Z,11.30
2022-08-19T01:00:01.448Z,10.10
2022-08-19T01:01:05.536Z,11.45
2022-08-19T01:02:08.300Z,11.98
2022-08-19T01:03:14.355Z,13.13
2022-08-19T01:04:16.505Z,9.10
2022-08-19T01:05:23.287Z,8.68
2022-08-19T01:06:27.271Z,9.25
2022-08-19T01:07:35.958Z,9.48
2022-08-19T01:08:40.685Z,9.07
2022-08-19T01:09:43.010Z,10.32
2022-08-19T01:10:54.584Z,13.40
2022-08-19T01:11:57.262Z,10.02
2022-08-19T01:13:01.906Z,13.82
2022-08-19T01:14:05.090Z,10.15
2022-08-19T01:15:10.988Z,8.15
2022-08-19T01:16:13.962Z,11.23
2022-08-19T01:17:17.159Z,8.98
2022-08-19T01:18:21.597Z,7.90
2022-08-19T01:19:44.285Z,9.95
2022-08-19T01:20:47.654Z,10.75
2022-08-19T01:22:20.022Z,11.65
2022-08-19T01:23:43.367Z,7.53
2022-08-19T01:24:49.825Z,9.50
2022-08-19T01:25:54.620Z,9.75
2022-08-19T01:26:58.198Z,9.57
2022-08-19T01:28:03.050Z,9.05
2022-08-19T01:29:13.252Z,8.20
2022-08-19T01:30:28.103Z,6.28
2022-08-19T01:31:33.453Z,6.55
2022-08-19T01:32:35.991Z,9.25
2022-08-19T01:33:39.184Z,9.70
2022-08-19T01:34:41.877Z,8.68
2022-08-19T01:35:44.251Z,9.20
2022-08-19T01:36:48.343Z,9.85
2022-08-19T01:37:59.546Z,9.07
2022-08-19T01:39:06.451Z,9.40
2022-08-19T01:40:09.727Z,7.40
2022-08-19T01:41:13.381Z,7.68
2022-08-19T01:42:15.670Z,8.00
2022-08-19T01:43:19.990Z,8.85
2022-08-19T01:44:24.959Z,7.82
2022-08-19T01:45:29.133Z,7.60
2022-08-19T01:46:33.057Z,8.55
2022-08-19T01:47:38.766Z,10.82
2022-08-19T01:48:43.275Z,8.52
2022-08-19T01:49:45.440Z,7.30
2022-08-19T01:50:48.663Z,7.85
2022-08-19T01:51:54.712Z,7.45
2022-08-19T01:53:06.210Z,9.65
2022-08-19T01:54:12.487Z,10.10
2022-08-19T01:55:19.400Z,13.13
2022-08-19T01:56:21.759Z,9.30
2022-08-19T01:57:24.108Z,8.80
2022-08-19T01:58:33.442Z,9.70
2022-08-19T01:59:37.421Z,9.93
2022-08-19T02:00:40.034Z,11.43
2022-08-19T02:01:42.341Z,10.50
2022-08-19T02:02:44.716Z,9.38
2022-08-19T02:03:47.055Z,8.88
2022-08-19T02:04:49.589Z,9.38
2022-08-19T02:06:00.579Z,7.88
2022-08-19T02:08:05.526Z,9.95
2022-08-19T02:09:09.266Z,10.77
2022-08-19T02:10:16.549Z,10.00
2022-08-19T02:11:21.945Z,14.27
2022-08-19T02:12:24.266Z,9.48
2022-08-19T02:13:27.908Z,8.52
2022-08-19T02:14:30.085Z,9.15
2022-08-19T02:15:33.036Z,9.77
2022-08-19T02:16:37.149Z,9.93
2022-08-19T02:17:40.121Z,11.00
2022-08-19T02:18:42.297Z,20.70
2022-08-19T02:19:44.519Z,14.50
2022-08-19T02:20:48.430Z,21.42
2022-08-19T02:21:52.451Z,9.52
2022-08-19T02:22:54.789Z,10.05
2022-08-19T02:23:57.841Z,10.93
2022-08-19T02:25:00.023Z,12.00
2022-08-19T02:26:02.169Z,12.55
2022-08-19T02:27:05.725Z,10.18
2022-08-19T02:28:08.949Z,9.98
2022-08-19T02:29:11.205Z,9.63
2022-08-19T02:30:17.065Z,8.52
2022-08-19T02:31:21.848Z,9.30
2022-08-19T02:32:23.986Z,8.45
2022-08-19T02:33:26.183Z,10.95
2022-08-19T02:34:28.407Z,8.07
2022-08-19T02:35:30.596Z,9.70
2022-08-19T02:36:32.773Z,11.20
2022-08-19T02:37:54.368Z,9.70
2022-08-19T02:38:56.631Z,9.25
2022-08-19T02:39:59.718Z,10.23
2022-08-19T02:41:11.911Z,8.30
2022-08-19T02:42:14.073Z,9.70
2022-08-19T02:43:16.609Z,8.07
2022-08-19T02:44:30.847Z,10.77
2022-08-19T02:45:40.425Z,9.85
2022-08-19T02:46:44.397Z,9.32
2022-08-19T02:47:46.607Z,10.40
2022-08-19T02:48:51.407Z,9.23
2022-08-19T02:49:53.594Z,8.73
2022-08-19T02:50:56.504Z,8.60
2022-08-19T02:51:58.899Z,9.27
2022-08-19T02:53:01.201Z,10.18
2022-08-19T02:54:05.037Z,10.05
2022-08-19T02:55:08.164Z,11.65
2022-08-19T02:56:10.337Z,9.25
2022-08-19T02:57:12.516Z,9.82
2022-08-19T02:58:15.849Z,8.77
2022-08-19T02:59:18.011Z,9.55
2022-08-19T03:00:25.108Z,9.85
2022-08-19T03:01:33.239Z,9.30
2022-08-19T03:02:35.506Z,10.25
2022-08-19T03:03:38.679Z,10.70
2022-08-19T03:04:40.849Z,8.82
2022-08-19T03:05:47.033Z,8.27
2022-08-19T03:07:07.128Z,8.65
2022-08-19T03:08:14.567Z,7.50
2022-08-19T03:09:18.080Z,8.10
2022-08-19T03:10:20.261Z,6.82
2022-08-19T03:11:31.462Z,7.63
2022-08-19T03:12:37.406Z,8.20
2022-08-19T03:13:39.631Z,12.50
2022-08-19T03:14:42.057Z,7.47
2022-08-19T03:15:46.887Z,13.23
2022-08-19T03:16:51.697Z,9.43
2022-08-19T03:17:53.918Z,14.15
2022-08-19T03:19:00.015Z,19.88
2022-08-19T03:20:02.395Z,12.52
2022-08-19T03:21:05.451Z,14.43
2022-08-19T03:22:08.757Z,11.23
2022-08-19T03:23:13.423Z,18.27
2022-08-19T03:24:16.820Z,10.68
2022-08-19T03:25:19.012Z,10.82
2022-08-19T03:26:21.343Z,8.95
2022-08-19T03:27:23.533Z,13.65
2022-08-19T03:28:30.573Z,15.57
2022-08-19T03:29:33.166Z,13.65
2022-08-19T03:31:41.442Z,22.92
2022-08-19T03:32:33.246Z,9.13
2022-08-19T03:33:36.343Z,8.70
2022-08-19T03:34:38.877Z,14.15
2022-08-19T03:35:41.037Z,17.55
2022-08-19T03:36:43.276Z,12.15
2022-08-19T03:37:45.516Z,9.23
2022-08-19T03:38:50.717Z,11.48
2022-08-19T03:41:04.610Z,7.80
2022-08-19T03:42:31.930Z,7.93
2022-08-19T03:43:29.552Z,8.18
2022-08-19T03:44:33.400Z,7.40
2022-08-19T03:45:35.560Z,7.50
2022-08-19T03:46:37.808Z,8.90
2022-08-19T03:47:44.538Z,7.35
2022-08-19T03:48:48.099Z,8.80
2022-08-19T03:49:50.374Z,10.60
2022-08-19T03:50:52.548Z,8.20
2022-08-19T03:51:56.946Z,8.93
2022-08-19T03:52:59.092Z,8.07
2022-08-19T03:54:04.287Z,9.55
2022-08-19T03:55:07.055Z,6.97
2022-08-19T03:56:11.089Z,13.30
2022-08-19T03:57:13.364Z,10.05
2022-08-19T03:58:15.523Z,8.18
2022-08-19T03:59:22.318Z,7.57
2022-08-19T04:00:24.490Z,9.73
2022-08-19T04:01:34.745Z,10.15
2022-08-19T04:02:37.468Z,7.25
2022-08-19T04:03:40.011Z,7.40
2022-08-19T04:04:44.157Z,9.50
2022-08-19T04:05:47.616Z,5.22
2022-08-19T04:06:51.664Z,7.95
2022-08-19T04:07:53.886Z,8.52
2022-08-19T04:08:58.842Z,6.13
2022-08-19T04:10:01.260Z,5.85
2022-08-19T04:11:08.875Z,8.07
2022-08-19T04:12:11.058Z,6.80
2022-08-19T04:13:13.606Z,8.65
2022-08-19T04:14:20.178Z,12.70
2022-08-19T04:15:22.339Z,11.07
2022-08-19T04:16:35.314Z,9.15
2022-08-19T04:17:37.573Z,9.40
2022-08-19T04:18:41.191Z,8.60
2022-08-19T04:19:43.974Z,7.70
2022-08-19T04:21:59.600Z,8.07
2022-08-19T04:23:01.846Z,10.90
2022-08-19T04:24:05.137Z,6.93
2022-08-19T04:25:07.547Z,11.30
2022-08-19T04:26:15.138Z,10.40
2022-08-19T04:27:17.503Z,11.13
2022-08-19T04:28:19.723Z,10.23
2022-08-19T04:29:26.358Z,7.68
2022-08-19T04:30:28.706Z,9.55
2022-08-19T04:31:36.825Z,10.80
2022-08-19T04:32:39.699Z,11.00
2022-08-19T04:33:42.527Z,9.50
2022-08-19T04:35:03.262Z,11.50
2022-08-19T04:36:07.326Z,15.05
2022-08-19T04:37:13.649Z,12.02
2022-08-19T04:38:18.168Z,14.13
2022-08-19T04:39:47.283Z,13.57
2022-08-19T04:41:10.757Z,11.43
2022-08-19T04:42:32.450Z,14.63
2022-08-19T04:43:35.990Z,17.45
2022-08-19T04:44:38.966Z,13.98
2022-08-19T04:45:48.766Z,15.00
2022-08-19T04:46:52.281Z,13.85
2022-08-19T04:48:19.793Z,15.73
2022-08-19T04:49:25.807Z,14.43
2022-08-19T04:50:28.042Z,14.18
2022-08-19T04:51:32.223Z,12.85
2022-08-19T04:52:35.077Z,12.98
2022-08-19T04:53:38.835Z,13.88
2022-08-19T04:54:41.348Z,12.00
2022-08-19T04:55:43.854Z,16.98
2022-08-19T04:56:46.036Z,12.95
2022-08-19T04:57:49.040Z,13.32
2022-08-19T04:58:54.473Z,11.73
2022-08-19T04:59:58.360Z,10.38
2022-08-19T05:01:01.435Z,13.30
2022-08-19T05:02:05.114Z,10.55
2022-08-19T05:03:08.294Z,9.75
2022-08-19T05:04:11.108Z,10.02
2022-08-19T05:05:14.535Z,13.95
2022-08-19T05:06:20.359Z,11.60
2022-08-19T05:07:22.574Z,11.27
2022-08-19T05:08:31.469Z,10.48
2022-08-19T05:09:57.818Z,11.20
2022-08-19T05:10:58.389Z,10.55
2022-08-19T05:12:01.354Z,11.02
2022-08-19T05:13:04.085Z,9.60
2022-08-19T05:14:10.183Z,9.55
2022-08-19T05:15:12.724Z,8.40
2022-08-19T05:16:16.807Z,9.63
2022-08-19T05:17:27.911Z,8.45
2022-08-19T05:18:49.941Z,7.93
2022-08-19T05:21:34.281Z,8.38
2022-08-19T05:22:36.806Z,6.75
2022-08-19T05:23:39.861Z,9.10
2022-08-19T05:25:02.392Z,7.45
2022-08-19T05:26:05.141Z,7.72
2022-08-19T05:27:08.353Z,7.75
2022-08-19T05:28:10.834Z,6.38
2022-08-19T05:29:17.530Z,6.70
2022-08-19T05:30:24.399Z,7.78
2022-08-19T05:31:43.225Z,7.40
2022-08-19T05:32:45.731Z,6.57
2022-08-19T05:33:48.771Z,7.13
2022-08-19T05:34:51.161Z,7.90
2022-08-19T05:35:53.560Z,8.32
2022-08-19T05:36:58.649Z,6.82
2022-08-19T05:38:01.016Z,12.82
2022-08-19T05:39:04.725Z,8.73
2022-08-19T05:40:07.933Z,11.43
2022-08-19T05:41:11.502Z,11.10
2022-08-19T05:42:13.996Z,6.65
2022-08-19T05:43:16.765Z,6.18
2022-08-19T05:44:21.029Z,6.97
2022-08-19T05:45:23.383Z,5.78
2022-08-19T05:46:27.941Z,8.38
2022-08-19T05:47:30.786Z,7.40
2022-08-19T05:48:36.842Z,6.45
2022-08-19T05:49:40.282Z,6.75
2022-08-19T05:50:42.862Z,6.60
2022-08-19T05:51:47.225Z,7.60
2022-08-19T05:52:51.683Z,8.55
2022-08-19T05:53:55.301Z,6.40
2022-08-19T05:54:59.528Z,7.03
2022-08-19T05:56:19.440Z,7.70
2022-08-19T05:57:24.994Z,6.10
2022-08-19T05:58:28.256Z,8.23
2022-08-19T05:59:30.997Z,7.50
2022-08-19T06:00:35.232Z,7.32
2022-08-19T06:01:39.871Z,5.07
2022-08-19T06:02:42.599Z,6.88
2022-08-19T06:03:45.723Z,5.70
2022-08-19T06:04:49.261Z,5.25
2022-08-19T06:05:52.291Z,5.85
2022-08-19T06:06:55.946Z,6.70
2022-08-19T06:08:02.354Z,4.68
2022-08-19T06:09:06.510Z,5.60
2022-08-19T06:10:11.031Z,5.03
2022-08-19T06:11:19.646Z,5.15
2022-08-19T06:12:31.451Z,6.50
2022-08-19T06:13:35.233Z,6.25
2022-08-19T06:14:41.715Z,4.97
2022-08-19T06:15:45.334Z,3.28
2022-08-19T06:16:48.127Z,4.72
2022-08-19T06:17:50.321Z,3.38
2022-08-19T06:18:53.778Z,3.80
2022-08-19T06:19:55.946Z,4.32
2022-08-19T06:20:58.127Z,3.53
2022-08-19T06:22:01.663Z,3.70
2022-08-19T06:23:04.757Z,3.60
2022-08-19T06:24:09.477Z,3.75
2022-08-19T06:25:12.549Z,4.78
2022-08-19T06:26:16.322Z,5.13
2022-08-19T06:27:18.493Z,3.55
2022-08-19T06:28:21.166Z,2.90
2022-08-19T06:29:25.370Z,2.75
2022-08-19T06:30:28.297Z,3.72
2022-08-19T06:31:32.234Z,5.22
2022-08-19T06:32:34.791Z,2.45
2022-08-19T06:33:38.301Z,2.78
2022-08-19T06:34:42.049Z,5.80
2022-08-19T06:36:50.269Z,3.20
2022-08-19T06:37:53.539Z,2.70
2022-08-19T06:38:55.927Z,3.70
2022-08-19T06:39:58.163Z,3.30
2022-08-19T06:41:07.512Z,2.15
2022-08-19T06:42:12.691Z,2.53
2022-08-19T06:43:16.838Z,3.70
2022-08-19T06:44:22.514Z,3.35
2022-08-19T06:45:34.913Z,2.50
2022-08-19T06:46:41.935Z,3.33
2022-08-19T06:47:48.155Z,3.55
2022-08-19T06:48:50.963Z,2.22
2022-08-19T06:50:05.248Z,2.83
2022-08-19T06:51:08.711Z,2.83
2022-08-19T06:52:15.414Z,3.30
2022-08-19T06:53:19.034Z,4.05
2022-08-19T06:54:21.534Z,3.70
2022-08-19T06:55:24.133Z,2.85
2022-08-19T06:56:37.619Z,1.80
2022-08-19T06:57:39.895Z,2.60
2022-08-19T06:58:42.265Z,4.30
2022-08-19T06:59:44.459Z,2.97
2022-08-19T07:00:46.622Z,8.57
2022-08-19T07:01:51.147Z,1.80
2022-08-19T07:02:59.397Z,3.92
2022-08-19T07:04:03.385Z,2.20
2022-08-19T07:05:06.787Z,3.47
2022-08-19T07:06:41.174Z,3.50
2022-08-19T07:07:37.876Z,2.08
2022-08-19T07:08:43.941Z,1.63
2022-08-19T07:09:51.854Z,1.67
2022-08-19T07:11:02.291Z,2.42
2022-08-19T07:12:15.706Z,2.90
2022-08-19T07:13:17.874Z,2.47
2022-08-19T07:14:23.351Z,3.22
2022-08-19T07:15:25.531Z,2.63
2022-08-19T07:16:29.350Z,3.50
2022-08-19T07:17:32.124Z,5.10
2022-08-19T07:18:37.642Z,3.33
2022-08-19T07:19:42.127Z,2.97
2022-08-19T07:20:44.379Z,3.53
2022-08-19T07:21:53.750Z,3.15
2022-08-19T07:22:56.690Z,4.95
2022-08-19T07:24:02.950Z,4.60
2022-08-19T07:25:10.502Z,2.97
2022-08-19T07:26:15.336Z,5.68
2022-08-19T07:27:17.986Z,4.47
2022-08-19T07:28:27.831Z,4.10
2022-08-19T07:29:33.930Z,3.95
2022-08-19T07:30:39.082Z,3.33
2022-08-19T07:31:43.546Z,3.10
2022-08-19T07:32:45.908Z,7.55
2022-08-19T07:33:50.161Z,4.78
2022-08-19T07:34:56.597Z,2.95
2022-08-19T07:35:59.696Z,2.95
2022-08-19T07:37:01.906Z,4.30
2022-08-19T07:38:04.680Z,2.33
2022-08-19T07:39:13.947Z,3.50
2022-08-19T07:40:16.427Z,3.67
2022-08-19T07:41:22.018Z,3.38
2022-08-19T07:42:24.326Z,3.58
2022-08-19T07:43:34.868Z,4.65
2022-08-19T07:45:45.917Z,3.17
2022-08-19T07:46:53.276Z,4.97
2022-08-19T07:47:55.987Z,2.47
2022-08-19T07:48:58.387Z,2.50
2022-08-19T07:50:00.629Z,6.20
2022-08-19T07:51:05.218Z,2.35
2022-08-19T07:52:09.830Z,4.82
2022-08-19T07:53:13.297Z,2.63
2022-08-19T07:54:15.579Z,4.43
2022-08-19T07:55:41.080Z,5.65
2022-08-19T07:56:44.013Z,3.17
2022-08-19T07:57:46.222Z,4.93
2022-08-19T07:58:51.550Z,3.58
2022-08-19T07:59:53.833Z,4.55
2022-08-19T08:00:56.146Z,3.25
2022-08-19T08:02:01.413Z,6.68
2022-08-19T08:03:03.633Z,3.38
2022-08-19T08:04:24.509Z,4.88
2022-08-19T08:05:45.164Z,3.60
2022-08-19T08:08:44.429Z,2.30
2022-08-19T08:09:50.658Z,3.45
2022-08-19T08:10:54.601Z,3.03
2022-08-19T08:12:13.310Z,2.83
2022-08-19T08:13:27.368Z,3.47
2022-08-19T08:14:39.626Z,2.55
2022-08-19T08:15:46.384Z,2.22
2022-08-19T08:16:51.138Z,4.97
2022-08-19T08:17:53.328Z,7.75
2022-08-19T08:18:55.572Z,2.30
2022-08-19T08:19:58.901Z,2.80
2022-08-19T08:21:01.069Z,2.88
2022-08-19T08:22:04.481Z,3.92
2022-08-19T08:23:26.070Z,2.42
2022-08-19T08:24:31.646Z,4.45
2022-08-19T08:25:34.553Z,2.50
2022-08-19T08:26:37.916Z,3.03
2022-08-19T08:27:50.943Z,4.05
2022-08-19T08:28:57.508Z,3.55
2022-08-19T08:29:59.689Z,2.10
2022-08-19T08:31:09.494Z,1.75
2022-08-19T08:32:13.984Z,4.10
2022-08-19T08:33:33.399Z,2.13
2022-08-19T08:34:37.974Z,3.45
2022-08-19T08:35:42.868Z,1.98
2022-08-19T08:36:46.859Z,2.63
2022-08-19T08:37:51.412Z,3.75
2022-08-19T08:40:11.306Z,2.92
2022-08-19T08:41:47.370Z,4.95
2022-08-19T08:43:22.340Z,5.50
2022-08-19T08:44:39.091Z,2.53
2022-08-19T08:45:55.953Z,4.10
2022-08-19T08:47:04.578Z,2.53
2022-08-19T08:48:24.158Z,3.15
2022-08-19T08:49:29.285Z,3.33
2022-08-19T08:50:42.940Z,2.00
2022-08-19T08:51:59.648Z,2.03
2022-08-19T08:53:05.582Z,4.70
2022-08-19T08:54:12.739Z,2.42
2022-08-19T08:55:21.699Z,3.00
2022-08-19T08:56:24.046Z,2.05
2022-08-19T08:57:38.561Z,2.13
2022-08-19T08:58:59.137Z,1.73
2022-08-19T09:00:06.861Z,1.85
2022-08-19T09:01:18.138Z,3.08
2022-08-19T09:02:20.681Z,4.28
2022-08-19T09:03:26.279Z,3.47
2022-08-19T09:04:29.344Z,3.78
2022-08-19T09:05:48.558Z,3.83
2022-08-19T09:07:34.933Z,2.58
2022-08-19T09:08:51.357Z,3.80
2022-08-19T09:10:19.308Z,1.80
2022-08-19T09:11:44.645Z,3.17
2022-08-19T09:13:09.511Z,2.97
2022-08-19T09:14:34.992Z,1.75
2022-08-19T09:15:45.396Z,1.25
2022-08-19T09:16:50.498Z,4.18
2022-08-19T09:17:52.853Z,2.25
2022-08-19T09:18:59.071Z,2.97
2022-08-19T09:20:17.026Z,4.22
2022-08-19T09:21:25.736Z,2.50
2022-08-19T09:22:33.115Z,2.20
2022-08-19T09:23:38.420Z,2.92
2022-08-19T09:24:41.767Z,1.95
2022-08-19T09:25:45.247Z,1.63
2022-08-19T09:26:52.504Z,8.18
2022-08-19T09:28:02.781Z,2.63
2022-08-19T09:29:06.720Z,2.10
2022-08-19T09:30:11.832Z,1.40
2022-08-19T09:31:24.095Z,3.42
2022-08-19T09:32:27.466Z,1.95
2022-08-19T09:33:30.138Z,3.58
2022-08-19T09:34:38.054Z,2.15
2022-08-19T09:35:52.917Z,2.05
2022-08-19T09:36:59.134Z,3.08
2022-08-19T09:38:01.439Z,3.80
2022-08-19T09:39:16.109Z,2.13
2022-08-19T09:40:19.587Z,1.85
2022-08-19T09:41:24.838Z,2.67
2022-08-19T09:42:35.155Z,1.77
2022-08-19T09:43:44.504Z,2.53
2022-08-19T09:44:50.144Z,3.17
2022-08-19T09:45:53.383Z,2.70
2022-08-19T09:46:55.592Z,1.88
2022-08-19T09:47:57.918Z,2.65
2022-08-19T09:49:03.002Z,4.00
2022-08-19T09:50:12.083Z,1.65
2022-08-19T09:51:22.722Z,3.00
2022-08-19T09:52:25.648Z,2.47
2022-08-19T09:53:36.448Z,3.25
2022-08-19T09:54:40.197Z,4.10
2022-08-19T09:55:46.603Z,2.22
2022-08-19T09:56:48.928Z,3.72
2022-08-19T09:57:51.135Z,2.60
2022-08-19T09:58:53.359Z,1.27
2022-08-19T09:59:55.683Z,2.13
2022-08-19T10:01:00.371Z,3.38
2022-08-19T10:02:03.638Z,1.27
2022-08-19T10:03:07.035Z,2.67
2022-08-19T10:04:19.818Z,2.03
2022-08-19T10:05:43.048Z,3.15
2022-08-19T10:06:45.931Z,2.42
2022-08-19T10:07:48.870Z,3.10
2022-08-19T10:08:52.614Z,6.43
2022-08-19T10:09:55.393Z,2.28
2022-08-19T10:10:58.975Z,1.10
2022-08-19T10:12:02.504Z,2.58
2022-08-19T10:13:04.995Z,3.35
2022-08-19T10:14:08.002Z,2.40
2022-08-19T10:15:10.643Z,3.28
2022-08-19T10:16:16.863Z,3.00
2022-08-19T10:17:20.794Z,2.22
2022-08-19T10:18:26.332Z,2.63
2022-08-19T10:19:33.386Z,1.88
2022-08-19T10:20:36.682Z,1.88
2022-08-19T10:21:41.275Z,3.65
2022-08-19T10:22:44.354Z,3.45
2022-08-19T10:23:49.426Z,1.95
2022-08-19T10:24:53.527Z,3.20
2022-08-19T10:25:55.714Z,3.45
2022-08-19T10:26:59.777Z,1.35
2022-08-19T10:28:02.284Z,2.72
2022-08-19T10:29:05.969Z,1.25
2022-08-19T10:30:12.394Z,2.88
2022-08-19T10:31:20.382Z,4.43
2022-08-19T10:32:46.436Z,1.35
2022-08-19T10:33:53.889Z,4.80
2022-08-19T10:34:57.409Z,1.60
2022-08-19T10:36:01.461Z,2.97
2022-08-19T10:37:06.586Z,3.58
2022-08-19T10:38:13.428Z,1.45
2022-08-19T10:39:15.731Z,1.45
2022-08-19T10:40:17.990Z,1.83
2022-08-19T10:41:24.040Z,1.25
2022-08-19T10:42:26.225Z,3.13
2022-08-19T10:43:28.374Z,1.50
2022-08-19T10:44:32.619Z,1.55
2022-08-19T10:45:34.958Z,2.08
2022-08-19T10:46:46.080Z,3.47
2022-08-19T10:47:50.591Z,3.90
2022-08-19T10:48:53.460Z,2.72
2022-08-19T10:50:15.398Z,2.13
2022-08-19T10:51:37.067Z,1.58
2022-08-19T10:52:50.811Z,2.13
2022-08-19T10:53:53.291Z,2.05
2022-08-19T10:55:14.202Z,2.83
2022-08-19T10:56:35.202Z,2.00
2022-08-19T10:57:59.449Z,2.08
2022-08-19T10:59:00.039Z,2.88
2022-08-19T11:00:02.315Z,1.33
2022-08-19T11:01:05.037Z,2.08
2022-08-19T11:02:11.024Z,1.98
2022-08-19T11:03:13.568Z,2.70
2022-08-19T11:04:18.447Z,1.77
2022-08-19T11:05:20.609Z,2.53
2022-08-19T11:06:26.825Z,2.65
2022-08-19T11:07:29.001Z,2.88
2022-08-19T11:08:32.116Z,1.20
2022-08-19T11:09:41.544Z,2.78
2022-08-19T11:10:43.757Z,4.93
2022-08-19T11:11:54.242Z,1.88
2022-08-19T11:12:57.543Z,2.17
2022-08-19T11:13:59.779Z,2.72
2022-08-19T11:15:02.529Z,1.02
2022-08-19T11:16:14.225Z,1.45
2022-08-19T11:17:16.780Z,1.90
2022-08-19T11:18:18.971Z,2.08
2022-08-19T11:19:21.394Z,1.60
2022-08-19T11:20:24.565Z,1.17
2022-08-19T11:21:33.942Z,3.03
2022-08-19T11:22:40.932Z,1.80
2022-08-19T11:23:44.902Z,1.38
2022-08-19T11:24:47.103Z,1.48
2022-08-19T11:25:50.419Z,2.33
2022-08-19T11:26:58.584Z,2.33
2022-08-19T11:28:00.743Z,1.92
2022-08-19T11:29:05.454Z,2.90
2022-08-19T11:30:08.637Z,3.70
2022-08-19T11:31:18.775Z,1.30
2022-08-19T11:32:21.095Z,1.63
2022-08-19T11:33:23.311Z,1.38
2022-08-19T11:34:28.556Z,1.73
2022-08-19T11:35:30.812Z,1.70
2022-08-19T11:36:33.571Z,1.95
2022-08-19T11:37:38.995Z,1.25
2022-08-19T11:38:41.209Z,1.50
2022-08-19T11:39:43.435Z,3.50
2022-08-19T11:40:59.131Z,1.75
2022-08-19T11:42:03.682Z,1.80
2022-08-19T11:43:05.850Z,1.88
2022-08-19T11:44:10.901Z,1.52
2022-08-19T11:45:14.872Z,1.38
2022-08-19T11:46:18.001Z,3.58
2022-08-19T11:47:20.405Z,2.45
2022-08-19T11:48:23.576Z,1.42
2022-08-19T11:49:25.785Z,3.92
2022-08-19T11:50:28.072Z,2.08
2022-08-19T11:51:31.911Z,2.45
2022-08-19T11:52:34.402Z,2.80
2022-08-19T11:53:37.055Z,2.35
2022-08-19T11:54:39.417Z,3.15
2022-08-19T11:55:44.199Z,1.85
2022-08-19T11:56:47.354Z,2.40
2022-08-19T11:57:49.626Z,1.25
2022-08-19T11:58:53.159Z,1.27
2022-08-19T11:59:55.313Z,2.00
2022-08-19T12:00:57.730Z,1.45
2022-08-19T12:02:00.177Z,2.47
2022-08-19T12:03:02.766Z,2.78
2022-08-19T12:04:06.183Z,1.20
2022-08-19T12:05:12.204Z,1.20
2022-08-19T12:06:19.919Z,1.42
2022-08-19T12:07:22.118Z,2.63
2022-08-19T12:08:24.288Z,2.72
2022-08-19T12:09:26.796Z,1.60
2022-08-19T12:10:33.928Z,2.40
2022-08-19T12:11:37.816Z,3.03
2022-08-19T12:12:43.603Z,2.10
2022-08-19T12:13:46.800Z,2.72
2022-08-19T12:14:48.974Z,1.25
2022-08-19T12:15:51.282Z,2.72
2022-08-19T12:16:53.528Z,1.30
2022-08-19T12:17:58.445Z,3.85
2022-08-19T12:19:04.798Z,1.42
2022-08-19T12:20:09.755Z,1.42
2022-08-19T12:21:14.518Z,1.55
2022-08-19T12:22:16.682Z,1.88
2022-08-19T12:23:18.941Z,1.95
2022-08-19T12:24:24.143Z,2.65
2022-08-19T12:25:26.528Z,1.33
2022-08-19T12:26:30.537Z,2.22
2022-08-19T12:27:40.357Z,1.25
2022-08-19T12:28:44.124Z,1.95
2022-08-19T12:29:46.293Z,2.03
2022-08-19T12:30:51.013Z,2.10
2022-08-19T12:31:53.170Z,1.20
2022-08-19T12:32:55.591Z,2.70
2022-08-19T12:33:58.030Z,3.92
2022-08-19T12:35:00.374Z,2.58
2022-08-19T12:36:05.517Z,2.83
2022-08-19T12:37:08.535Z,1.38
2022-08-19T12:38:11.848Z,1.33
2022-08-19T12:39:14.010Z,1.95
2022-08-19T12:40:18.936Z,1.60
2022-08-19T12:41:23.252Z,1.38
2022-08-19T12:42:25.645Z,1.83
2022-08-19T12:43:31.287Z,1.98
2022-08-19T12:44:33.850Z,1.30
2022-08-19T12:45:37.059Z,3.03
2022-08-19T12:46:40.229Z,1.55
2022-08-19T12:47:45.343Z,2.83
2022-08-19T12:48:54.088Z,1.80
2022-08-19T12:49:57.895Z,2.78
2022-08-19T12:51:00.684Z,2.28
2022-08-19T12:52:03.871Z,1.85
2022-08-19T12:53:06.151Z,2.67
2022-08-19T12:54:08.458Z,1.67
2022-08-19T12:55:12.021Z,2.35
2022-08-19T12:56:15.690Z,3.42
2022-08-19T12:57:17.882Z,1.38
2022-08-19T12:58:22.272Z,2.90
2022-08-19T12:59:28.398Z,3.20
2022-08-19T13:00:33.770Z,1.70
2022-08-19T13:01:36.122Z,1.35
2022-08-19T13:02:39.816Z,1.60
2022-08-19T13:03:42.393Z,1.27
2022-08-19T13:04:44.546Z,1.67
2022-08-19T13:05:46.776Z,2.72
2022-08-19T13:06:49.043Z,1.40
2022-08-19T13:07:53.617Z,1.90
2022-08-19T13:08:59.510Z,3.10
2022-08-19T13:10:02.429Z,2.55
2022-08-19T13:11:14.150Z,1.20
2022-08-19T13:12:16.387Z,1.27
2022-08-19T13:13:18.705Z,1.30
2022-08-19T13:14:21.038Z,1.98
2022-08-19T13:15:24.558Z,2.75
2022-08-19T13:16:28.591Z,2.53
2022-08-19T13:17:30.749Z,3.85
2022-08-19T13:18:33.063Z,2.30
2022-08-19T13:19:37.482Z,2.47
2022-08-19T13:20:41.645Z,1.67
2022-08-19T13:21:43.851Z,1.35
2022-08-19T13:22:47.682Z,1.45
2022-08-19T13:23:51.106Z,1.88
2022-08-19T13:24:53.833Z,1.58
2022-08-19T13:26:00.710Z,1.02
2022-08-19T13:27:03.186Z,1.38
2022-08-19T13:28:07.413Z,1.67
2022-08-19T13:29:28.160Z,1.52
2022-08-19T13:30:48.936Z,1.58
2022-08-19T13:32:09.406Z,1.50
2022-08-19T13:33:16.465Z,2.47
2022-08-19T13:34:22.006Z,3.22
2022-08-19T13:35:24.169Z,1.65
2022-08-19T13:36:26.433Z,1.83
2022-08-19T13:37:43.773Z,1.48
2022-08-19T13:38:46.297Z,1.63
2022-08-19T13:39:48.552Z,2.03
2022-08-19T13:40:53.379Z,2.35
2022-08-19T13:41:56.116Z,1.90
2022-08-19T13:42:58.381Z,2.50
2022-08-19T13:44:02.776Z,1.50
2022-08-19T13:45:07.400Z,1.40
2022-08-19T13:46:14.873Z,1.40
2022-08-19T13:47:17.322Z,1.42
2022-08-19T13:48:19.695Z,3.15
2022-08-19T13:49:24.075Z,3.05
2022-08-19T13:50:29.964Z,2.17
2022-08-19T13:51:32.129Z,1.50
2022-08-19T13:52:34.307Z,1.63
2022-08-19T13:53:47.382Z,5.13
2022-08-19T13:54:50.210Z,2.20
2022-08-19T13:55:54.466Z,2.22
2022-08-19T13:56:56.700Z,2.35
2022-08-19T13:58:02.715Z,1.80
2022-08-19T13:59:04.956Z,1.55
2022-08-19T14:00:13.444Z,2.05
2022-08-19T14:01:21.745Z,2.08
2022-08-19T14:02:27.452Z,2.08
2022-08-19T14:03:29.704Z,2.03
2022-08-19T14:04:32.090Z,1.90
2022-08-19T14:05:35.629Z,1.92
2022-08-19T14:06:37.898Z,1.88
2022-08-19T14:07:40.163Z,2.47
2022-08-19T14:08:46.051Z,1.77
2022-08-19T14:09:49.280Z,2.25
2022-08-19T14:10:51.895Z,1.98
2022-08-19T14:11:54.115Z,3.58
2022-08-19T14:12:59.197Z,2.63
2022-08-19T14:14:01.434Z,3.03
2022-08-19T14:15:05.282Z,2.20
2022-08-19T14:16:13.614Z,3.78
2022-08-19T14:17:16.528Z,2.15
2022-08-19T14:18:20.068Z,3.35
2022-08-19T14:19:22.333Z,1.88
2022-08-19T14:20:26.816Z,2.33
2022-08-19T14:21:29.074Z,5.18
2022-08-19T14:22:31.814Z,1.90
2022-08-19T14:23:34.442Z,2.63
2022-08-19T14:24:40.656Z,2.75
2022-08-19T14:25:50.155Z,2.85
2022-08-19T14:26:52.343Z,3.30
2022-08-19T14:27:55.370Z,2.97
2022-08-19T14:28:58.763Z,3.85
2022-08-19T14:30:01.087Z,2.42
2022-08-19T14:31:03.406Z,1.92
2022-08-19T14:32:05.796Z,2.95
2022-08-19T14:33:08.382Z,2.70
2022-08-19T14:34:11.122Z,2.95
2022-08-19T14:35:15.245Z,2.03
2022-08-19T14:36:19.278Z,2.30
2022-08-19T14:37:22.993Z,2.50
2022-08-19T14:38:31.472Z,3.28
2022-08-19T14:39:34.569Z,1.60